sensor_id;sensor_type;location;lat;lon;timestamp;P1;durP1;ratioP1;P2;durP2;ratioP2
66721;SDS011;53633;49.932;10.884;2023-02-04T00:01:01;10.68;;;0.80;;
66721;SDS011;53633;49.932;10.884;2023-02-04T00:03:28;10.13;;;1.13;;
66721;SDS011;53633;49.932;10.884;2023-02-04T00:05:55;13.13;;;0.50;;
66721;SDS011;53633;49.932;10.884;2023-02-04T00:08:21;8.90;;;1.27;;
66721;SDS011;53633;49.932;10.884;2023-02-04T00:10:50;7.40;;;0.70;;
66721;SDS011;53633;49.932;10.884;2023-02-04T00:13:16;9.70;;;1.00;;
66721;SDS011;53633;49.932;10.884;2023-02-04T00:15:43;7.97;;;0.73;;
66721;SDS011;53633;49.932;10.884;2023-02-04T00:18:10;8.02;;;0.50;;
66721;SDS011;53633;49.932;10.884;2023-02-04T00:20:36;12.40;;;1.42;;
66721;SDS011;53633;49.932;10.884;2023-02-04T00:23:03;7.78;;;0.90;;
66721;SDS011;53633;49.932;10.884;2023-02-04T00:25:30;9.95;;;0.85;;
66721;SDS011;53633;49.932;10.884;2023-02-04T00:27:58;12.27;;;1.23;;
66721;SDS011;53633;49.932;10.884;2023-02-04T00:30:25;10.77;;;0.70;;
66721;SDS011;53633;49.932;10.884;2023-02-04T00:32:51;10.25;;;0.93;;
66721;SDS011;53633;49.932;10.884;2023-02-04T00:35:18;8.95;;;0.60;;
66721;SDS011;53633;49.932;10.884;2023-02-04T00:37:45;11.38;;;1.42;;
66721;SDS011;53633;49.932;10.884;2023-02-04T00:40:12;11.10;;;1.00;;
66721;SDS011;53633;49.932;10.884;2023-02-04T00:42:38;8.70;;;0.70;;
66721;SDS011;53633;49.932;10.884;2023-02-04T00:45:07;8.82;;;0.98;;
66721;SDS011;53633;49.932;10.884;2023-02-04T00:47:34;8.90;;;1.15;;
66721;SDS011;53633;49.932;10.884;2023-02-04T00:50:01;9.95;;;1.20;;
66721;SDS011;53633;49.932;10.884;2023-02-04T00:52:27;9.63;;;0.70;;
66721;SDS011;53633;49.932;10.884;2023-02-04T00:54:54;7.53;;;0.57;;
66721;SDS011;53633;49.932;10.884;2023-02-04T00:57:21;9.50;;;1.00;;
66721;SDS011;53633;49.932;10.884;2023-02-04T00:59:48;12.98;;;1.10;;
66721;SDS011;53633;49.932;10.884;2023-02-04T01:02:16;10.75;;;1.02;;
66721;SDS011;53633;49.932;10.884;2023-02-04T01:04:43;14.67;;;1.33;;
66721;SDS011;53633;49.932;10.884;2023-02-04T01:07:10;11.55;;;1.67;;
66721;SDS011;53633;49.932;10.884;2023-02-04T01:09:37;6.68;;;0.50;;
66721;SDS011;53633;49.932;10.884;2023-02-04T01:12:04;14.57;;;1.23;;
66721;SDS011;53633;49.932;10.884;2023-02-04T01:14:30;9.77;;;0.85;;
66721;SDS011;53633;49.932;10.884;2023-02-04T01:16:57;9.67;;;1.53;;
66721;SDS011;53633;49.932;10.884;2023-02-04T01:19:25;10.38;;;0.80;;
66721;SDS011;53633;49.932;10.884;2023-02-04T01:21:52;8.77;;;0.93;;
66721;SDS011;53633;49.932;10.884;2023-02-04T01:24:19;6.88;;;0.52;;
66721;SDS011;53633;49.932;10.884;2023-02-04T01:26:45;10.27;;;1.00;;
66721;SDS011;53633;49.932;10.884;2023-02-04T01:29:12;12.03;;;0.80;;
66721;SDS011;53633;49.932;10.884;2023-02-04T01:31:39;11.10;;;0.88;;
66721;SDS011;53633;49.932;10.884;2023-02-04T01:34:05;11.13;;;1.33;;
66721;SDS011;53633;49.932;10.884;2023-02-04T01:36:33;9.10;;;0.60;;
66721;SDS011;53633;49.932;10.884;2023-02-04T01:39:00;9.95;;;0.50;;
66721;SDS011;53633;49.932;10.884;2023-02-04T01:41:27;8.77;;;0.80;;
66721;SDS011;53633;49.932;10.884;2023-02-04T01:43:53;10.25;;;0.82;;
66721;SDS011;53633;49.932;10.884;2023-02-04T01:46:20;9.55;;;0.88;;
66721;SDS011;53633;49.932;10.884;2023-02-04T01:48:47;11.43;;;1.00;;
66721;SDS011;53633;49.932;10.884;2023-02-04T01:51:14;9.48;;;0.70;;
66721;SDS011;53633;49.932;10.884;2023-02-04T01:53:52;10.00;;;0.80;;
66721;SDS011;53633;49.932;10.884;2023-02-04T01:56:19;13.10;;;0.88;;
66721;SDS011;53633;49.932;10.884;2023-02-04T01:58:47;9.27;;;0.68;;
66721;SDS011;53633;49.932;10.884;2023-02-04T02:01:31;9.25;;;0.82;;
66721;SDS011;53633;49.932;10.884;2023-02-04T02:04:00;6.35;;;0.60;;
66721;SDS011;53633;49.932;10.884;2023-02-04T02:06:27;12.83;;;0.80;;
66721;SDS011;53633;49.932;10.884;2023-02-04T02:08:58;11.77;;;0.70;;
66721;SDS011;53633;49.932;10.884;2023-02-04T02:11:26;7.25;;;0.80;;
66721;SDS011;53633;49.932;10.884;2023-02-04T02:13:53;14.05;;;0.93;;
66721;SDS011;53633;49.932;10.884;2023-02-04T02:16:20;10.02;;;1.02;;
66721;SDS011;53633;49.932;10.884;2023-02-04T02:18:48;9.87;;;0.80;;
66721;SDS011;53633;49.932;10.884;2023-02-04T02:21:15;9.30;;;0.98;;
66721;SDS011;53633;49.932;10.884;2023-02-04T02:23:50;7.45;;;1.15;;
66721;SDS011;53633;49.932;10.884;2023-02-04T02:26:19;9.25;;;0.90;;
66721;SDS011;53633;49.932;10.884;2023-02-04T02:28:48;12.13;;;1.83;;
66721;SDS011;53633;49.932;10.884;2023-02-04T02:31:16;9.30;;;1.33;;
66721;SDS011;53633;49.932;10.884;2023-02-04T02:33:44;6.72;;;0.85;;
66721;SDS011;53633;49.932;10.884;2023-02-04T02:36:12;9.38;;;1.20;;
66721;SDS011;53633;49.932;10.884;2023-02-04T02:38:38;9.43;;;1.05;;
66721;SDS011;53633;49.932;10.884;2023-02-04T02:41:07;8.55;;;0.77;;
66721;SDS011;53633;49.932;10.884;2023-02-04T02:43:34;16.80;;;1.30;;
66721;SDS011;53633;49.932;10.884;2023-02-04T02:46:01;10.50;;;0.95;;
66721;SDS011;53633;49.932;10.884;2023-02-04T02:48:28;9.40;;;0.93;;
66721;SDS011;53633;49.932;10.884;2023-02-04T02:50:55;6.88;;;0.73;;
66721;SDS011;53633;49.932;10.884;2023-02-04T02:53:22;9.85;;;0.93;;
66721;SDS011;53633;49.932;10.884;2023-02-04T02:55:49;7.87;;;1.17;;
66721;SDS011;53633;49.932;10.884;2023-02-04T02:58:21;10.77;;;1.15;;
66721;SDS011;53633;49.932;10.884;2023-02-04T03:00:49;8.50;;;0.75;;
66721;SDS011;53633;49.932;10.884;2023-02-04T03:03:18;7.90;;;1.50;;
66721;SDS011;53633;49.932;10.884;2023-02-04T03:05:49;12.30;;;0.80;;
66721;SDS011;53633;49.932;10.884;2023-02-04T03:08:19;12.90;;;1.00;;
66721;SDS011;53633;49.932;10.884;2023-02-04T03:10:47;12.80;;;0.85;;
66721;SDS011;53633;49.932;10.884;2023-02-04T03:13:14;9.30;;;0.60;;
66721;SDS011;53633;49.932;10.884;2023-02-04T03:15:43;8.98;;;0.77;;
66721;SDS011;53633;49.932;10.884;2023-02-04T03:18:13;8.27;;;0.90;;
66721;SDS011;53633;49.932;10.884;2023-02-04T03:20:41;8.83;;;0.93;;
66721;SDS011;53633;49.932;10.884;2023-02-04T03:23:08;14.05;;;1.85;;
66721;SDS011;53633;49.932;10.884;2023-02-04T03:25:36;8.93;;;1.00;;
66721;SDS011;53633;49.932;10.884;2023-02-04T03:28:02;10.73;;;1.10;;
66721;SDS011;53633;49.932;10.884;2023-02-04T03:30:30;7.40;;;0.63;;
66721;SDS011;53633;49.932;10.884;2023-02-04T03:32:58;9.33;;;0.60;;
66721;SDS011;53633;49.932;10.884;2023-02-04T03:35:25;9.70;;;0.70;;
66721;SDS011;53633;49.932;10.884;2023-02-04T03:37:52;12.20;;;0.80;;
66721;SDS011;53633;49.932;10.884;2023-02-04T03:40:19;9.23;;;0.73;;
66721;SDS011;53633;49.932;10.884;2023-02-04T03:42:46;10.60;;;1.00;;
66721;SDS011;53633;49.932;10.884;2023-02-04T03:45:12;10.60;;;0.60;;
66721;SDS011;53633;49.932;10.884;2023-02-04T03:47:39;12.80;;;0.95;;
66721;SDS011;53633;49.932;10.884;2023-02-04T03:50:07;8.77;;;0.98;;
66721;SDS011;53633;49.932;10.884;2023-02-04T03:52:34;10.48;;;0.80;;
66721;SDS011;53633;49.932;10.884;2023-02-04T03:55:01;11.60;;;1.73;;
66721;SDS011;53633;49.932;10.884;2023-02-04T03:57:28;8.53;;;0.60;;
66721;SDS011;53633;49.932;10.884;2023-02-04T03:59:54;10.32;;;0.98;;
66721;SDS011;53633;49.932;10.884;2023-02-04T04:02:21;11.07;;;0.80;;
66721;SDS011;53633;49.932;10.884;2023-02-04T04:04:48;7.18;;;1.02;;
66721;SDS011;53633;49.932;10.884;2023-02-04T04:07:16;13.90;;;1.15;;
66721;SDS011;53633;49.932;10.884;2023-02-04T04:09:43;8.77;;;0.60;;
66721;SDS011;53633;49.932;10.884;2023-02-04T04:12:10;9.27;;;1.15;;
66721;SDS011;53633;49.932;10.884;2023-02-04T04:14:37;6.93;;;0.80;;
66721;SDS011;53633;49.932;10.884;2023-02-04T04:17:03;7.72;;;0.60;;
66721;SDS011;53633;49.932;10.884;2023-02-04T04:19:30;7.43;;;0.82;;
66721;SDS011;53633;49.932;10.884;2023-02-04T04:21:57;11.13;;;0.90;;
66721;SDS011;53633;49.932;10.884;2023-02-04T04:24:25;8.45;;;0.52;;
66721;SDS011;53633;49.932;10.884;2023-02-04T04:26:51;6.82;;;0.60;;
66721;SDS011;53633;49.932;10.884;2023-02-04T04:29:18;13.35;;;0.65;;
66721;SDS011;53633;49.932;10.884;2023-02-04T04:31:45;6.82;;;0.63;;
66721;SDS011;53633;49.932;10.884;2023-02-04T04:34:12;8.40;;;0.80;;
66721;SDS011;53633;49.932;10.884;2023-02-04T04:36:38;15.20;;;0.98;;
66721;SDS011;53633;49.932;10.884;2023-02-04T04:39:05;13.27;;;0.60;;
66721;SDS011;53633;49.932;10.884;2023-02-04T04:41:33;8.05;;;0.57;;
66721;SDS011;53633;49.932;10.884;2023-02-04T04:44:00;9.07;;;0.68;;
66721;SDS011;53633;49.932;10.884;2023-02-04T04:46:27;10.37;;;0.63;;
66721;SDS011;53633;49.932;10.884;2023-02-04T04:48:54;9.32;;;0.75;;
66721;SDS011;53633;49.932;10.884;2023-02-04T04:51:20;8.90;;;0.88;;
66721;SDS011;53633;49.932;10.884;2023-02-04T04:53:47;5.72;;;0.57;;
66721;SDS011;53633;49.932;10.884;2023-02-04T04:56:14;7.18;;;0.55;;
66721;SDS011;53633;49.932;10.884;2023-02-04T04:58:42;10.60;;;0.67;;
66721;SDS011;53633;49.932;10.884;2023-02-04T05:01:09;9.40;;;0.60;;
66721;SDS011;53633;49.932;10.884;2023-02-04T05:03:35;7.55;;;0.50;;
66721;SDS011;53633;49.932;10.884;2023-02-04T05:06:02;11.23;;;0.88;;
66721;SDS011;53633;49.932;10.884;2023-02-04T05:08:29;6.80;;;0.52;;
66721;SDS011;53633;49.932;10.884;2023-02-04T05:10:56;10.23;;;0.70;;
66721;SDS011;53633;49.932;10.884;2023-02-04T05:13:22;10.85;;;0.63;;
66721;SDS011;53633;49.932;10.884;2023-02-04T05:15:50;10.27;;;0.52;;
66721;SDS011;53633;49.932;10.884;2023-02-04T05:18:17;9.02;;;0.85;;
66721;SDS011;53633;49.932;10.884;2023-02-04T05:20:44;10.05;;;0.77;;
66721;SDS011;53633;49.932;10.884;2023-02-04T05:23:10;8.40;;;0.50;;
66721;SDS011;53633;49.932;10.884;2023-02-04T05:25:37;13.07;;;0.68;;
66721;SDS011;53633;49.932;10.884;2023-02-04T05:28:04;8.70;;;1.00;;
66721;SDS011;53633;49.932;10.884;2023-02-04T05:30:30;9.60;;;0.73;;
66721;SDS011;53633;49.932;10.884;2023-02-04T05:32:59;9.45;;;0.60;;
66721;SDS011;53633;49.932;10.884;2023-02-04T05:35:26;7.17;;;0.63;;
66721;SDS011;53633;49.932;10.884;2023-02-04T05:37:52;7.40;;;0.85;;
66721;SDS011;53633;49.932;10.884;2023-02-04T05:40:19;13.75;;;0.55;;
66721;SDS011;53633;49.932;10.884;2023-02-04T05:42:46;5.15;;;0.57;;
66721;SDS011;53633;49.932;10.884;2023-02-04T05:45:13;5.35;;;0.40;;
66721;SDS011;53633;49.932;10.884;2023-02-04T05:47:41;3.20;;;0.40;;
66721;SDS011;53633;49.932;10.884;2023-02-04T05:50:09;2.97;;;0.25;;
66721;SDS011;53633;49.932;10.884;2023-02-04T05:52:36;1.40;;;0.20;;
66721;SDS011;53633;49.932;10.884;2023-02-04T05:55:03;3.22;;;0.20;;
66721;SDS011;53633;49.932;10.884;2023-02-04T05:57:30;3.22;;;0.20;;
66721;SDS011;53633;49.932;10.884;2023-02-04T05:59:57;4.07;;;0.27;;
66721;SDS011;53633;49.932;10.884;2023-02-04T06:02:24;3.80;;;0.20;;
66721;SDS011;53633;49.932;10.884;2023-02-04T06:04:50;3.10;;;0.30;;
66721;SDS011;53633;49.932;10.884;2023-02-04T06:07:18;3.75;;;0.30;;
66721;SDS011;53633;49.932;10.884;2023-02-04T06:09:45;1.08;;;0.20;;
66721;SDS011;53633;49.932;10.884;2023-02-04T06:12:12;2.80;;;0.20;;
66721;SDS011;53633;49.932;10.884;2023-02-04T06:14:38;4.55;;;0.70;;
66721;SDS011;53633;49.932;10.884;2023-02-04T06:17:05;4.45;;;0.57;;
66721;SDS011;53633;49.932;10.884;2023-02-04T06:19:32;5.38;;;0.63;;
66721;SDS011;53633;49.932;10.884;2023-02-04T06:21:58;1.30;;;0.30;;
66721;SDS011;53633;49.932;10.884;2023-02-04T06:24:26;1.43;;;0.33;;
66721;SDS011;53633;49.932;10.884;2023-02-04T06:26:53;0.90;;;0.20;;
66721;SDS011;53633;49.932;10.884;2023-02-04T06:29:20;1.75;;;0.22;;
66721;SDS011;53633;49.932;10.884;2023-02-04T06:31:46;0.88;;;0.15;;
66721;SDS011;53633;49.932;10.884;2023-02-04T06:34:13;1.48;;;0.30;;
66721;SDS011;53633;49.932;10.884;2023-02-04T06:36:40;1.53;;;0.20;;
66721;SDS011;53633;49.932;10.884;2023-02-04T06:39:07;0.95;;;0.17;;
66721;SDS011;53633;49.932;10.884;2023-02-04T06:41:35;4.20;;;0.30;;
66721;SDS011;53633;49.932;10.884;2023-02-04T06:44:02;3.33;;;0.30;;
66721;SDS011;53633;49.932;10.884;2023-02-04T06:46:29;2.38;;;0.40;;
66721;SDS011;53633;49.932;10.884;2023-02-04T06:48:55;2.07;;;0.30;;
66721;SDS011;53633;49.932;10.884;2023-02-04T06:51:22;2.53;;;0.30;;
66721;SDS011;53633;49.932;10.884;2023-02-04T06:53:49;2.40;;;0.40;;
66721;SDS011;53633;49.932;10.884;2023-02-04T06:56:16;3.55;;;0.40;;
66721;SDS011;53633;49.932;10.884;2023-02-04T06:58:44;2.75;;;0.32;;
66721;SDS011;53633;49.932;10.884;2023-02-04T07:01:11;2.43;;;0.30;;
66721;SDS011;53633;49.932;10.884;2023-02-04T07:03:37;2.65;;;0.40;;
66721;SDS011;53633;49.932;10.884;2023-02-04T07:06:04;3.60;;;0.40;;
66721;SDS011;53633;49.932;10.884;2023-02-04T07:08:31;2.78;;;0.30;;
66721;SDS011;53633;49.932;10.884;2023-02-04T07:10:58;2.30;;;0.40;;
66721;SDS011;53633;49.932;10.884;2023-02-04T07:13:24;2.13;;;0.30;;
66721;SDS011;53633;49.932;10.884;2023-02-04T07:15:52;3.25;;;0.50;;
66721;SDS011;53633;49.932;10.884;2023-02-04T07:18:19;2.45;;;0.47;;
66721;SDS011;53633;49.932;10.884;2023-02-04T07:20:46;3.35;;;0.35;;
66721;SDS011;53633;49.932;10.884;2023-02-04T07:23:13;3.35;;;0.40;;
66721;SDS011;53633;49.932;10.884;2023-02-04T07:25:40;2.77;;;0.40;;
66721;SDS011;53633;49.932;10.884;2023-02-04T07:28:06;3.45;;;0.40;;
66721;SDS011;53633;49.932;10.884;2023-02-04T07:30:33;3.88;;;0.65;;
66721;SDS011;53633;49.932;10.884;2023-02-04T07:33:02;2.92;;;0.40;;
66721;SDS011;53633;49.932;10.884;2023-02-04T07:35:28;2.28;;;0.50;;
66721;SDS011;53633;49.932;10.884;2023-02-04T07:37:55;2.33;;;0.50;;
66721;SDS011;53633;49.932;10.884;2023-02-04T07:40:22;3.20;;;0.35;;
66721;SDS011;53633;49.932;10.884;2023-02-04T07:42:48;3.35;;;0.40;;
66721;SDS011;53633;49.932;10.884;2023-02-04T07:45:15;2.28;;;0.40;;
66721;SDS011;53633;49.932;10.884;2023-02-04T07:47:42;2.75;;;0.40;;
66721;SDS011;53633;49.932;10.884;2023-02-04T07:50:10;2.93;;;0.37;;
66721;SDS011;53633;49.932;10.884;2023-02-04T07:52:37;3.80;;;0.40;;
66721;SDS011;53633;49.932;10.884;2023-02-04T07:55:04;4.25;;;0.60;;
66721;SDS011;53633;49.932;10.884;2023-02-04T07:57:31;1.80;;;0.45;;
66721;SDS011;53633;49.932;10.884;2023-02-04T07:59:57;2.38;;;0.40;;
66721;SDS011;53633;49.932;10.884;2023-02-04T08:02:24;2.37;;;0.30;;
66721;SDS011;53633;49.932;10.884;2023-02-04T08:04:51;1.23;;;0.20;;
66721;SDS011;53633;49.932;10.884;2023-02-04T08:07:19;2.70;;;0.60;;
66721;SDS011;53633;49.932;10.884;2023-02-04T08:09:46;2.50;;;0.30;;
66721;SDS011;53633;49.932;10.884;2023-02-04T08:12:12;3.70;;;0.68;;
66721;SDS011;53633;49.932;10.884;2023-02-04T08:14:39;4.13;;;0.67;;
66721;SDS011;53633;49.932;10.884;2023-02-04T08:17:06;3.33;;;0.50;;
66721;SDS011;53633;49.932;10.884;2023-02-04T08:19:33;2.97;;;0.70;;
66721;SDS011;53633;49.932;10.884;2023-02-04T08:21:59;3.42;;;0.80;;
66721;SDS011;53633;49.932;10.884;2023-02-04T08:24:27;4.10;;;0.70;;
66721;SDS011;53633;49.932;10.884;2023-02-04T08:26:54;3.03;;;0.60;;
66721;SDS011;53633;49.932;10.884;2023-02-04T08:29:21;3.55;;;0.80;;
66721;SDS011;53633;49.932;10.884;2023-02-04T08:31:48;3.53;;;0.68;;
66721;SDS011;53633;49.932;10.884;2023-02-04T08:34:14;3.15;;;0.80;;
66721;SDS011;53633;49.932;10.884;2023-02-04T08:36:42;3.97;;;0.60;;
66721;SDS011;53633;49.932;10.884;2023-02-04T08:39:09;3.83;;;0.93;;
66721;SDS011;53633;49.932;10.884;2023-02-04T08:41:37;3.95;;;0.43;;
66721;SDS011;53633;49.932;10.884;2023-02-04T08:44:04;2.13;;;0.50;;
66721;SDS011;53633;49.932;10.884;2023-02-04T08:46:31;2.45;;;0.45;;
66721;SDS011;53633;49.932;10.884;2023-02-04T08:48:58;1.65;;;0.40;;
66721;SDS011;53633;49.932;10.884;2023-02-04T08:51:24;2.40;;;0.50;;
66721;SDS011;53633;49.932;10.884;2023-02-04T08:53:51;8.80;;;2.60;;
66721;SDS011;53633;49.932;10.884;2023-02-04T08:56:18;4.10;;;1.00;;
66721;SDS011;53633;49.932;10.884;2023-02-04T08:58:46;3.00;;;0.70;;
66721;SDS011;53633;49.932;10.884;2023-02-04T09:01:13;5.10;;;2.15;;
66721;SDS011;53633;49.932;10.884;2023-02-04T09:03:40;3.20;;;0.50;;
66721;SDS011;53633;49.932;10.884;2023-02-04T09:06:06;1.45;;;0.30;;
66721;SDS011;53633;49.932;10.884;2023-02-04T09:08:33;2.83;;;0.40;;
66721;SDS011;53633;49.932;10.884;2023-02-04T09:11:00;1.92;;;0.30;;
66721;SDS011;53633;49.932;10.884;2023-02-04T09:13:27;2.05;;;0.32;;
66721;SDS011;53633;49.932;10.884;2023-02-04T09:15:55;3.10;;;0.30;;
66721;SDS011;53633;49.932;10.884;2023-02-04T09:18:22;3.08;;;0.45;;
66721;SDS011;53633;49.932;10.884;2023-02-04T09:20:49;1.98;;;0.30;;
66721;SDS011;53633;49.932;10.884;2023-02-04T09:23:16;1.63;;;0.38;;
66721;SDS011;53633;49.932;10.884;2023-02-04T09:25:44;1.08;;;0.30;;
66721;SDS011;53633;49.932;10.884;2023-02-04T09:28:11;1.40;;;0.30;;
66721;SDS011;53633;49.932;10.884;2023-02-04T09:30:39;3.35;;;0.68;;
66721;SDS011;53633;49.932;10.884;2023-02-04T09:33:09;2.30;;;0.57;;
66721;SDS011;53633;49.932;10.884;2023-02-04T09:35:37;1.50;;;0.30;;
66721;SDS011;53633;49.932;10.884;2023-02-04T09:38:04;1.92;;;0.30;;
66721;SDS011;53633;49.932;10.884;2023-02-04T09:40:32;1.30;;;0.30;;
66721;SDS011;53633;49.932;10.884;2023-02-04T09:43:03;2.35;;;0.40;;
66721;SDS011;53633;49.932;10.884;2023-02-04T09:45:31;1.48;;;0.30;;
66721;SDS011;53633;49.932;10.884;2023-02-04T09:48:01;1.33;;;0.30;;
66721;SDS011;53633;49.932;10.884;2023-02-04T09:50:30;1.70;;;0.30;;
66721;SDS011;53633;49.932;10.884;2023-02-04T09:52:59;1.17;;;0.20;;
66721;SDS011;53633;49.932;10.884;2023-02-04T09:55:30;1.08;;;0.30;;
66721;SDS011;53633;49.932;10.884;2023-02-04T09:57:58;1.42;;;0.32;;
66721;SDS011;53633;49.932;10.884;2023-02-04T10:00:25;1.20;;;0.30;;
66721;SDS011;53633;49.932;10.884;2023-02-04T10:02:54;1.00;;;0.30;;
66721;SDS011;53633;49.932;10.884;2023-02-04T10:05:23;1.23;;;0.37;;
66721;SDS011;53633;49.932;10.884;2023-02-04T10:07:55;1.17;;;0.20;;
66721;SDS011;53633;49.932;10.884;2023-02-04T10:10:23;1.13;;;0.20;;
66721;SDS011;53633;49.932;10.884;2023-02-04T10:12:51;1.38;;;0.20;;
66721;SDS011;53633;49.932;10.884;2023-02-04T10:15:20;0.98;;;0.20;;
66721;SDS011;53633;49.932;10.884;2023-02-04T10:17:47;2.50;;;0.30;;
66721;SDS011;53633;49.932;10.884;2023-02-04T10:20:18;1.00;;;0.20;;
66721;SDS011;53633;49.932;10.884;2023-02-04T10:22:46;1.38;;;0.30;;
66721;SDS011;53633;49.932;10.884;2023-02-04T10:25:17;1.35;;;0.30;;
66721;SDS011;53633;49.932;10.884;2023-02-04T10:27:49;1.08;;;0.30;;
66721;SDS011;53633;49.932;10.884;2023-02-04T10:30:18;2.20;;;0.20;;
66721;SDS011;53633;49.932;10.884;2023-02-04T10:32:48;2.42;;;0.30;;
66721;SDS011;53633;49.932;10.884;2023-02-04T10:35:16;1.38;;;0.20;;
66721;SDS011;53633;49.932;10.884;2023-02-04T10:37:45;1.80;;;0.30;;
66721;SDS011;53633;49.932;10.884;2023-02-04T10:40:25;1.20;;;0.30;;
66721;SDS011;53633;49.932;10.884;2023-02-04T10:42:53;1.20;;;0.30;;
66721;SDS011;53633;49.932;10.884;2023-02-04T10:45:20;1.27;;;0.30;;
66721;SDS011;53633;49.932;10.884;2023-02-04T10:47:49;1.35;;;0.30;;
66721;SDS011;53633;49.932;10.884;2023-02-04T10:50:17;0.98;;;0.30;;
66721;SDS011;53633;49.932;10.884;2023-02-04T10:52:46;1.17;;;0.28;;
66721;SDS011;53633;49.932;10.884;2023-02-04T10:55:17;1.57;;;0.33;;
66721;SDS011;53633;49.932;10.884;2023-02-04T10:57:46;0.70;;;0.20;;
66721;SDS011;53633;49.932;10.884;2023-02-04T11:00:15;1.20;;;0.30;;
66721;SDS011;53633;49.932;10.884;2023-02-04T11:02:44;1.00;;;0.20;;
66721;SDS011;53633;49.932;10.884;2023-02-04T11:05:16;1.77;;;0.30;;
66721;SDS011;53633;49.932;10.884;2023-02-04T11:07:44;1.10;;;0.27;;
66721;SDS011;53633;49.932;10.884;2023-02-04T11:10:13;1.65;;;0.30;;
66721;SDS011;53633;49.932;10.884;2023-02-04T11:12:42;3.13;;;0.47;;
66721;SDS011;53633;49.932;10.884;2023-02-04T11:18:04;1.55;;;0.40;;
66721;SDS011;53633;49.932;10.884;2023-02-04T11:20:32;2.30;;;0.30;;
66721;SDS011;53633;49.932;10.884;2023-02-04T11:23:12;2.95;;;0.30;;
66721;SDS011;53633;49.932;10.884;2023-02-04T11:25:40;1.30;;;0.30;;
66721;SDS011;53633;49.932;10.884;2023-02-04T11:28:13;1.88;;;0.30;;
66721;SDS011;53633;49.932;10.884;2023-02-04T11:30:42;1.75;;;0.40;;
66721;SDS011;53633;49.932;10.884;2023-02-04T11:33:22;2.93;;;0.50;;
66721;SDS011;53633;49.932;10.884;2023-02-04T11:35:59;1.70;;;0.40;;
66721;SDS011;53633;49.932;10.884;2023-02-04T11:38:26;1.63;;;0.30;;
66721;SDS011;53633;49.932;10.884;2023-02-04T11:40:57;1.48;;;0.45;;
66721;SDS011;53633;49.932;10.884;2023-02-04T11:43:25;1.15;;;0.30;;
66721;SDS011;53633;49.932;10.884;2023-02-04T11:46:00;1.37;;;0.30;;
66721;SDS011;53633;49.932;10.884;2023-02-04T11:48:29;1.40;;;0.30;;
66721;SDS011;53633;49.932;10.884;2023-02-04T11:50:57;2.10;;;0.50;;
66721;SDS011;53633;49.932;10.884;2023-02-04T11:53:27;1.13;;;0.30;;
66721;SDS011;53633;49.932;10.884;2023-02-04T11:55:55;1.63;;;0.30;;
66721;SDS011;53633;49.932;10.884;2023-02-04T11:58:22;1.13;;;0.20;;
66721;SDS011;53633;49.932;10.884;2023-02-04T12:00:49;1.20;;;0.25;;
66721;SDS011;53633;49.932;10.884;2023-02-04T12:03:20;0.98;;;0.30;;
66721;SDS011;53633;49.932;10.884;2023-02-04T12:05:50;1.38;;;0.30;;
66721;SDS011;53633;49.932;10.884;2023-02-04T12:08:24;1.10;;;0.30;;
66721;SDS011;53633;49.932;10.884;2023-02-04T12:10:58;0.87;;;0.20;;
66721;SDS011;53633;49.932;10.884;2023-02-04T12:13:27;1.70;;;0.25;;
66721;SDS011;53633;49.932;10.884;2023-02-04T12:15:59;1.38;;;0.30;;
66721;SDS011;53633;49.932;10.884;2023-02-04T12:18:29;1.20;;;0.28;;
66721;SDS011;53633;49.932;10.884;2023-02-04T12:20:57;2.88;;;0.40;;
66721;SDS011;53633;49.932;10.884;2023-02-04T12:23:25;1.97;;;0.30;;
66721;SDS011;53633;49.932;10.884;2023-02-04T12:25:53;2.22;;;0.40;;
66721;SDS011;53633;49.932;10.884;2023-02-04T12:28:20;1.65;;;0.40;;
66721;SDS011;53633;49.932;10.884;2023-02-04T12:30:47;2.53;;;0.40;;
66721;SDS011;53633;49.932;10.884;2023-02-04T12:33:14;3.38;;;0.32;;
66721;SDS011;53633;49.932;10.884;2023-02-04T12:35:43;2.97;;;0.40;;
66721;SDS011;53633;49.932;10.884;2023-02-04T12:38:09;3.03;;;0.40;;
66721;SDS011;53633;49.932;10.884;2023-02-04T12:40:36;2.42;;;0.50;;
66721;SDS011;53633;49.932;10.884;2023-02-04T12:43:03;1.90;;;0.40;;
66721;SDS011;53633;49.932;10.884;2023-02-04T12:45:30;2.72;;;0.40;;
66721;SDS011;53633;49.932;10.884;2023-02-04T12:47:57;2.03;;;0.30;;
66721;SDS011;53633;49.932;10.884;2023-02-04T12:50:24;2.03;;;0.50;;
66721;SDS011;53633;49.932;10.884;2023-02-04T12:52:53;2.20;;;0.57;;
66721;SDS011;53633;49.932;10.884;2023-02-04T12:55:20;2.47;;;0.30;;
66721;SDS011;53633;49.932;10.884;2023-02-04T12:57:48;1.98;;;0.47;;
66721;SDS011;53633;49.932;10.884;2023-02-04T13:00:15;2.37;;;0.40;;
66721;SDS011;53633;49.932;10.884;2023-02-04T13:02:43;2.67;;;0.40;;
66721;SDS011;53633;49.932;10.884;2023-02-04T13:05:10;2.97;;;0.40;;
66721;SDS011;53633;49.932;10.884;2023-02-04T13:07:37;2.05;;;0.30;;
66721;SDS011;53633;49.932;10.884;2023-02-04T13:10:06;1.85;;;0.32;;
66721;SDS011;53633;49.932;10.884;2023-02-04T13:12:33;2.93;;;0.40;;
66721;SDS011;53633;49.932;10.884;2023-02-04T13:15:00;2.50;;;0.45;;
66721;SDS011;53633;49.932;10.884;2023-02-04T13:17:27;1.73;;;0.40;;
66721;SDS011;53633;49.932;10.884;2023-02-04T13:19:54;1.85;;;0.30;;
66721;SDS011;53633;49.932;10.884;2023-02-04T13:22:20;1.88;;;0.35;;
66721;SDS011;53633;49.932;10.884;2023-02-04T13:24:47;3.03;;;0.40;;
66721;SDS011;53633;49.932;10.884;2023-02-04T13:27:15;1.40;;;0.30;;
66721;SDS011;53633;49.932;10.884;2023-02-04T13:29:42;1.58;;;0.30;;
66721;SDS011;53633;49.932;10.884;2023-02-04T13:32:08;1.77;;;0.30;;
66721;SDS011;53633;49.932;10.884;2023-02-04T13:34:35;1.10;;;0.30;;
66721;SDS011;53633;49.932;10.884;2023-02-04T13:37:02;2.13;;;0.30;;
66721;SDS011;53633;49.932;10.884;2023-02-04T13:39:29;4.03;;;0.50;;
66721;SDS011;53633;49.932;10.884;2023-02-04T13:41:56;1.40;;;0.30;;
66721;SDS011;53633;49.932;10.884;2023-02-04T13:44:24;2.20;;;0.50;;
66721;SDS011;53633;49.932;10.884;2023-02-04T13:46:50;1.63;;;0.30;;
66721;SDS011;53633;49.932;10.884;2023-02-04T13:49:17;1.67;;;0.40;;
66721;SDS011;53633;49.932;10.884;2023-02-04T13:51:44;1.98;;;0.30;;
66721;SDS011;53633;49.932;10.884;2023-02-04T13:54:14;2.33;;;0.50;;
66721;SDS011;53633;49.932;10.884;2023-02-04T13:56:40;2.67;;;0.47;;
66721;SDS011;53633;49.932;10.884;2023-02-04T13:59:07;1.85;;;0.40;;
66721;SDS011;53633;49.932;10.884;2023-02-04T14:01:35;1.80;;;0.50;;
66721;SDS011;53633;49.932;10.884;2023-02-04T14:04:02;2.35;;;0.40;;
66721;SDS011;53633;49.932;10.884;2023-02-04T14:06:29;1.42;;;0.32;;
66721;SDS011;53633;49.932;10.884;2023-02-04T14:08:56;1.92;;;0.38;;
66721;SDS011;53633;49.932;10.884;2023-02-04T14:11:22;2.22;;;0.30;;
66721;SDS011;53633;49.932;10.884;2023-02-04T14:13:49;1.33;;;0.30;;
66721;SDS011;53633;49.932;10.884;2023-02-04T14:16:16;3.35;;;0.40;;
66721;SDS011;53633;49.932;10.884;2023-02-04T14:18:44;1.80;;;0.40;;
66721;SDS011;53633;49.932;10.884;2023-02-04T14:21:11;2.05;;;0.35;;
66721;SDS011;53633;49.932;10.884;2023-02-04T14:23:37;2.75;;;0.40;;
66721;SDS011;53633;49.932;10.884;2023-02-04T14:26:04;1.93;;;0.40;;
66721;SDS011;53633;49.932;10.884;2023-02-04T14:28:31;1.70;;;0.43;;
66721;SDS011;53633;49.932;10.884;2023-02-04T14:30:57;2.42;;;0.50;;
66721;SDS011;53633;49.932;10.884;2023-02-04T14:33:24;1.65;;;0.50;;
66721;SDS011;53633;49.932;10.884;2023-02-04T14:35:52;2.22;;;0.68;;
66721;SDS011;53633;49.932;10.884;2023-02-04T14:38:19;2.17;;;0.40;;